Time;durP1;ratioP1;P1;durP2;ratioP2;P2;SDS_P1;SDS_P2;PMS_P1;PMS_P2;Temp;Humidity;BMP_temperature;BMP_pressure;BME280_temperature;BME280_humidity;BME280_pressure;Samples;Min_cycle;Max_cycle;Signal;HPM_P1;HPM_P2
2022/10/23 00:01:46;;;;;;;28.15;18.27;;;5.90;99.90;;;6.74;100.00;98760.81;4993669;27;116158;-75
2022/10/23 00:04:20;;;;;;;28.98;17.73;;;5.90;99.90;;;6.73;100.00;98748.44;5010551;27;129792;-79
2022/10/23 00:06:50;;;;;;;30.75;18.55;;;5.90;99.90;;;6.75;100.00;98753.53;5029521;27;128895;-77
2022/10/23 00:09:23;;;;;;;28.55;17.20;;;5.90;99.90;;;6.73;100.00;98750.31;4976477;28;118393;-76
2022/10/23 00:11:53;;;;;;;29.42;17.85;;;5.90;99.90;;;6.71;100.00;98742.53;5009651;28;115859;-77
2022/10/23 00:14:25;;;;;;;28.05;17.27;;;5.90;99.90;;;6.73;100.00;98743.06;5027654;28;128942;-76
2022/10/23 00:16:56;;;;;;;27.80;17.90;;;5.90;99.90;;;6.70;100.00;98743.66;5027276;28;128731;-74
2022/10/23 00:19:26;;;;;;;27.85;16.85;;;5.90;99.90;;;6.71;100.00;98739.84;5025184;28;118635;-77
2022/10/23 00:21:55;;;;;;;25.95;17.05;;;5.90;99.90;;;6.72;100.00;98729.88;5027378;28;115340;-75
2022/10/23 00:24:24;;;;;;;28.45;17.27;;;5.90;99.90;;;6.62;100.00;98733.56;5011185;28;129124;-76
2022/10/23 00:26:53;;;;;;;27.95;17.85;;;5.90;99.90;;;6.58;100.00;98727.22;5020620;28;129953;-81
2022/10/23 00:29:24;;;;;;;29.70;19.15;;;5.90;99.90;;;6.59;100.00;98731.47;5029539;28;118538;-75
2022/10/23 00:31:54;;;;;;;29.00;17.98;;;5.90;99.90;;;6.48;100.00;98741.69;5025600;28;116138;-76
2022/10/23 00:34:23;;;;;;;29.08;16.80;;;5.80;99.90;;;6.35;100.00;98737.94;4979050;28;129256;-76
2022/10/23 00:36:53;;;;;;;28.77;17.48;;;5.80;99.90;;;6.28;100.00;98734.84;5040477;28;129197;-80
2022/10/23 00:39:22;;;;;;;29.58;17.10;;;5.80;99.90;;;6.30;100.00;98732.66;5042997;28;117528;-77
2022/10/23 00:41:51;;;;;;;27.48;17.88;;;5.80;99.90;;;6.29;100.00;98739.13;5020824;28;115211;-78
2022/10/23 00:45:18;;;;;;;31.42;17.98;;;5.80;99.90;;;6.22;100.00;98730.69;5006024;28;128517;-77
2022/10/23 00:47:47;;;;;;;34.72;17.23;;;5.80;99.90;;;6.18;100.00;98743.94;4988323;28;129894;-74
2022/10/23 00:50:18;;;;;;;30.60;18.08;;;5.80;99.90;;;6.11;100.00;98733.56;4990352;28;119003;-74
2022/10/23 00:52:53;;;;;;;30.73;18.90;;;5.70;99.90;;;6.06;100.00;98736.38;5027785;28;115777;-75
2022/10/23 00:55:27;;;;;;;30.90;18.30;;;5.70;99.90;;;6.09;100.00;98734.94;5012618;28;130421;-80
2022/10/23 00:57:57;;;;;;;29.48;18.52;;;5.70;99.90;;;6.09;100.00;98738.47;5028477;28;129165;-78
2022/10/23 01:00:29;;;;;;;32.80;19.02;;;5.70;99.90;;;6.09;100.00;98735.78;5037753;28;118354;-75
2022/10/23 01:03:03;;;;;;;30.52;18.88;;;5.70;99.90;;;6.10;100.00;98731.16;4988678;28;116175;-76
2022/10/23 01:05:43;;;;;;;30.42;18.58;;;5.70;99.90;;;6.13;100.00;98727.09;5012342;28;129823;-77
2022/10/23 01:08:23;;;;;;;28.02;17.80;;;5.70;99.90;;;6.16;100.00;98729.19;5025719;28;129894;-76
2022/10/23 01:11:01;;;;;;;31.60;19.13;;;5.70;99.90;;;6.21;100.00;98731.75;5039807;27;119513;-75
2022/10/23 01:13:44;;;;;;;29.83;18.63;;;5.70;99.90;;;6.14;100.00;98725.97;4963290;28;115379;-75
2022/10/23 01:16:21;;;;;;;28.83;18.67;;;5.70;99.90;;;6.11;100.00;98736.25;5011322;28;129216;-75
2022/10/23 01:18:58;;;;;;;30.77;18.15;;;5.80;99.90;;;6.07;100.00;98729.88;4977558;28;128997;-76
2022/10/23 01:21:35;;;;;;;29.40;18.30;;;5.70;99.90;;;6.05;100.00;98726.69;4992499;28;117556;-78
2022/10/23 01:24:19;;;;;;;28.45;18.60;;;5.70;99.90;;;6.05;100.00;98724.00;5034082;28;116213;-74
2022/10/23 01:27:13;;;;;;;32.88;18.48;;;5.70;99.90;;;6.07;100.00;98724.47;5007580;28;129409;-75
2022/10/23 01:29:47;;;;;;;31.45;19.20;;;5.70;99.90;;;6.06;100.00;98725.59;5031608;28;129080;-76
2022/10/23 01:32:25;;;;;;;31.08;18.75;;;5.70;99.90;;;6.11;100.00;98722.78;5013686;28;118605;-75
2022/10/23 01:35:02;;;;;;;29.45;18.02;;;5.80;99.90;;;6.14;100.00;98732.19;5023972;28;115731;-77
2022/10/23 01:37:40;;;;;;;27.77;17.85;;;5.70;99.90;;;6.21;100.00;98726.38;5018925;28;129462;-79
2022/10/23 01:40:21;;;;;;;33.25;19.38;;;5.80;99.90;;;6.19;100.00;98723.97;5027090;28;130146;-81
2022/10/23 01:42:59;;;;;;;29.23;18.23;;;5.70;99.90;;;6.21;100.00;98731.75;5010292;28;119624;-79
2022/10/23 01:45:40;;;;;;;28.98;17.80;;;5.70;99.90;;;6.17;100.00;98730.75;5025412;28;115061;-76
2022/10/23 01:48:15;;;;;;;26.77;17.88;;;5.70;99.90;;;6.08;100.00;98734.16;5005436;28;127490;-77
2022/10/23 01:50:46;;;;;;;30.55;18.63;;;5.70;99.90;;;6.09;100.00;98727.69;4983276;28;127050;-78
2022/10/23 01:53:15;;;;;;;31.05;18.73;;;5.80;99.90;;;6.12;100.00;98737.03;5019752;28;119034;-76
2022/10/23 01:55:44;;;;;;;29.58;19.05;;;5.80;99.90;;;6.21;100.00;98731.75;4988418;28;115425;-75
2022/10/23 01:58:22;;;;;;;26.80;18.00;;;5.80;99.90;;;6.30;100.00;98736.13;5021663;28;129329;-76
2022/10/23 02:00:54;;;;;;;28.60;17.55;;;5.80;99.90;;;6.35;100.00;98735.22;4981814;28;128648;-76
2022/10/23 02:03:27;;;;;;;27.42;17.60;;;5.80;99.90;;;6.36;100.00;98731.44;4968229;28;117083;-78
2022/10/23 02:05:56;;;;;;;28.27;17.92;;;5.90;99.90;;;6.37;100.00;98730.31;5029705;28;116228;-75
2022/10/23 02:08:25;;;;;;;31.02;16.85;;;5.80;99.90;;;6.38;100.00;98736.53;5023708;28;130339;-77
2022/10/23 02:11:07;;;;;;;28.23;17.20;;;5.80;99.90;;;6.39;100.00;98744.31;4988158;28;129276;-77
2022/10/23 02:13:45;;;;;;;28.60;17.65;;;5.90;99.90;;;6.36;100.00;98744.09;4975501;28;119319;-78
2022/10/23 02:16:26;;;;;;;33.17;18.90;;;5.90;99.90;;;6.34;100.00;98743.63;4991427;28;114783;-76
2022/10/23 02:19:02;;;;;;;26.15;17.55;;;5.90;99.90;;;6.32;100.00;98753.91;4991416;28;128531;-75
2022/10/23 02:21:41;;;;;;;29.38;17.63;;;5.80;99.90;;;6.28;100.00;98748.34;4988151;28;130531;-75
2022/10/23 02:24:15;;;;;;;28.90;17.75;;;5.80;99.90;;;6.29;100.00;98758.00;5009532;28;118832;-78
2022/10/23 02:26:55;;;;;;;27.35;16.73;;;5.90;99.90;;;6.25;100.00;98759.72;4994423;28;114810;-76
2022/10/23 02:29:33;;;;;;;26.42;18.27;;;5.80;99.90;;;6.19;100.00;98755.53;4978387;28;129384;-78
2022/10/23 02:32:03;;;;;;;34.10;19.42;;;5.80;99.90;;;6.22;100.00;98754.94;5013270;28;127653;-76
2022/10/23 02:34:33;;;;;;;30.98;17.90;;;5.80;99.90;;;6.32;100.00;98754.69;5011743;28;118593;-74
2022/10/23 02:37:02;;;;;;;31.92;18.52;;;5.80;99.90;;;6.40;100.00;98751.28;5022666;28;115578;-74
2022/10/23 02:39:31;;;;;;;32.83;17.40;;;5.90;99.90;;;6.46;100.00;98760.06;4991299;28;129377;-76
2022/10/23 02:42:13;;;;;;;33.15;18.55;;;5.90;99.90;;;6.47;100.00;98765.16;4992961;28;128972;-75
2022/10/23 02:44:59;;;;;;;31.40;18.05;;;5.90;99.90;;;6.45;100.00;98770.06;5021856;28;118923;-75
2022/10/23 02:47:47;;;;;;;28.33;18.13;;;5.90;99.90;;;6.46;100.00;98766.25;4976071;28;115754;-77
2022/10/23 02:50:28;;;;;;;31.63;19.00;;;5.90;99.90;;;6.51;100.00;98761.88;4991644;28;129360;-77
2022/10/23 02:53:07;;;;;;;30.70;17.50;;;5.90;99.90;;;6.51;100.00;98762.66;4990218;28;128833;-77
2022/10/23 02:55:54;;;;;;;30.98;17.02;;;5.90;99.90;;;6.45;100.00;98772.75;5021105;28;119283;-76
2022/10/23 02:58:33;;;;;;;26.33;16.33;;;5.90;99.90;;;6.46;100.00;98773.56;4989953;28;115800;-76
2022/10/23 03:01:09;;;;;;;30.35;16.33;;;5.90;99.90;;;6.45;100.00;98775.47;5002696;28;130139;-77
2022/10/23 03:03:43;;;;;;;30.37;17.63;;;5.90;99.90;;;6.37;100.00;98770.75;4986868;28;128934;-76
2022/10/23 03:06:15;;;;;;;28.25;16.05;;;5.80;99.90;;;6.34;100.00;98779.44;5003151;28;118509;-77
2022/10/23 03:08:49;;;;;;;29.98;17.52;;;5.80;99.90;;;6.33;100.00;98783.25;4980052;28;114460;-76
2022/10/23 03:11:23;;;;;;;27.33;16.15;;;5.80;99.90;;;6.30;100.00;98778.47;4987331;28;129495;-78
2022/10/23 03:13:52;;;;;;;28.58;16.20;;;5.80;99.90;;;6.29;100.00;98774.16;5050806;27;129383;-77
2022/10/23 03:16:22;;;;;;;30.38;16.35;;;5.80;99.90;;;6.34;100.00;98784.81;4987243;28;118419;-77
2022/10/23 03:18:55;;;;;;;28.55;17.50;;;5.90;99.90;;;6.29;100.00;98787.63;5021208;28;114302;-78
2022/10/23 03:21:25;;;;;;;26.70;15.25;;;5.80;99.90;;;6.29;100.00;98776.84;5019800;28;129454;-76
2022/10/23 03:23:55;;;;;;;27.42;16.83;;;5.90;99.90;;;6.34;100.00;98794.81;4976244;28;128888;-80
2022/10/23 03:26:33;;;;;;;28.83;16.00;;;5.90;99.90;;;6.33;100.00;98787.81;5007704;28;118095;-77
2022/10/23 03:29:03;;;;;;;23.90;14.20;;;5.80;99.90;;;6.36;100.00;98782.66;5004085;28;114530;-75
2022/10/23 03:31:34;;;;;;;26.15;13.93;;;5.90;99.90;;;6.41;100.00;98785.22;5003662;28;127881;-76
2022/10/23 03:34:08;;;;;;;27.48;13.98;;;5.90;99.90;;;6.45;100.00;98786.25;5000420;28;130595;-75
2022/10/23 03:36:39;;;;;;;28.77;15.40;;;5.90;99.90;;;6.42;100.00;98786.84;5020470;28;119457;-76
2022/10/23 03:39:09;;;;;;;24.70;14.30;;;5.90;99.90;;;6.40;100.00;98794.41;5000922;28;114790;-76
2022/10/23 03:41:38;;;;;;;25.38;13.50;;;5.90;99.90;;;6.39;100.00;98792.84;4999672;28;129993;-75
2022/10/23 03:44:08;;;;;;;25.65;13.88;;;5.90;99.90;;;6.39;100.00;98792.00;4998415;28;130376;-75
2022/10/23 03:46:39;;;;;;;23.95;13.50;;;5.90;99.90;;;6.43;100.00;98804.59;4996422;28;117484;-77
2022/10/23 03:49:08;;;;;;;26.65;13.05;;;5.90;99.90;;;6.40;100.00;98801.72;5003808;28;115664;-80
2022/10/23 03:51:40;;;;;;;21.25;12.52;;;5.90;99.90;;;6.41;100.00;98803.31;5023441;28;130141;-76
2022/10/23 03:54:09;;;;;;;25.00;14.13;;;5.90;99.90;;;6.40;100.00;98799.81;5003369;28;127347;-74
2022/10/23 03:56:39;;;;;;;25.77;13.98;;;5.90;99.90;;;6.38;100.00;98795.81;4984202;28;117986;-78
2022/10/23 03:59:09;;;;;;;25.50;13.68;;;5.90;99.90;;;6.38;100.00;98804.69;4996762;28;115729;-75
2022/10/23 04:01:39;;;;;;;25.15;14.13;;;6.00;99.90;;;6.42;100.00;98813.78;5001463;28;127866;-77
2022/10/23 04:04:09;;;;;;;26.63;13.80;;;6.00;99.90;;;6.42;100.00;98805.72;5020863;28;127645;-82
2022/10/23 04:06:39;;;;;;;32.90;14.73;;;6.00;99.90;;;6.41;100.00;98806.00;5038739;27;118865;-77
2022/10/23 04:09:08;;;;;;;27.25;14.20;;;5.90;99.90;;;6.41;100.00;98806.78;5029966;28;116115;-75
2022/10/23 04:11:37;;;;;;;29.15;13.85;;;6.00;99.90;;;6.41;100.00;98809.50;5026364;28;130980;-75
2022/10/23 04:14:06;;;;;;;46.88;19.63;;;6.00;99.90;;;6.41;100.00;98804.09;5023618;28;129400;-79
2022/10/23 04:16:35;;;;;;;33.38;15.88;;;5.90;99.90;;;6.41;100.00;98806.78;5026915;28;118573;-79
2022/10/23 04:19:05;;;;;;;39.00;17.52;;;6.00;99.90;;;6.37;100.00;98808.47;5020045;28;115168;-78
2022/10/23 04:21:34;;;;;;;42.97;18.45;;;6.00;99.90;;;6.30;100.00;98808.09;5034129;28;129683;-76
2022/10/23 04:24:02;;;;;;;44.33;19.45;;;5.90;99.90;;;6.34;100.00;98806.38;5033366;28;128977;-79
2022/10/23 04:26:31;;;;;;;42.83;17.52;;;5.90;99.90;;;6.31;100.00;98807.00;5022709;28;118590;-77
2022/10/23 04:29:00;;;;;;;40.88;17.33;;;5.90;99.90;;;6.32;100.00;98811.28;5026527;28;114925;-79
2022/10/23 04:31:30;;;;;;;45.17;16.02;;;5.90;99.90;;;6.37;100.00;98811.19;5043276;28;129693;-76
2022/10/23 04:33:59;;;;;;;48.17;17.02;;;6.00;99.90;;;6.38;100.00;98807.41;5027170;28;129941;-76
2022/10/23 04:36:32;;;;;;;41.97;16.83;;;6.00;99.90;;;6.39;100.00;98806.31;5009526;28;118710;-76
2022/10/23 04:39:08;;;;;;;45.80;18.67;;;6.00;99.90;;;6.41;100.00;98803.31;5019291;28;115510;-80
2022/10/23 04:41:38;;;;;;;51.40;20.15;;;6.00;99.90;;;6.46;100.00;98809.38;5022578;28;129070;-75
2022/10/23 04:44:08;;;;;;;44.55;18.20;;;6.00;99.90;;;6.43;100.00;98806.50;5019854;28;129407;-77
2022/10/23 04:46:40;;;;;;;58.45;25.38;;;6.00;99.90;;;6.40;100.00;98805.19;5004076;28;118270;-77
2022/10/23 04:49:08;;;;;;;54.65;21.50;;;6.00;99.90;;;6.41;100.00;98811.41;5023958;28;116309;-77
2022/10/23 04:51:53;;;;;;;49.50;17.50;;;6.00;99.90;;;6.44;100.00;98811.59;4996902;28;128746;-76
2022/10/23 04:54:37;;;;;;;52.30;19.65;;;6.00;99.90;;;6.45;100.00;98813.19;5039857;28;129115;-77
2022/10/23 04:57:24;;;;;;;44.92;18.63;;;6.00;99.90;;;6.50;100.00;98819.56;5039622;27;119497;-76
2022/10/23 05:00:01;;;;;;;44.63;18.10;;;6.00;99.90;;;6.52;100.00;98812.00;5012776;28;116621;-76
2022/10/23 05:02:35;;;;;;;40.40;18.80;;;6.00;99.90;;;6.52;100.00;98817.38;5020548;28;131853;-77
2022/10/23 05:05:04;;;;;;;52.65;19.48;;;6.00;99.90;;;6.47;100.00;98816.38;5017731;28;129654;-77
2022/10/23 05:07:37;;;;;;;49.85;18.10;;;6.00;99.90;;;6.52;100.00;98812.00;5042767;28;119516;-79
2022/10/23 05:10:25;;;;;;;48.53;18.55;;;6.00;99.90;;;6.56;100.00;98813.78;5027972;28;115516;-76
2022/10/23 05:13:14;;;;;;;41.90;17.35;;;6.10;99.90;;;6.62;100.00;98806.38;5036777;28;128882;-78
2022/10/23 05:15:43;;;;;;;39.40;16.70;;;6.10;99.90;;;6.59;100.00;98812.38;5028660;28;128510;-80
2022/10/23 05:18:16;;;;;;;44.40;17.90;;;6.10;99.90;;;6.57;100.00;98806.47;5017589;28;118655;-84
2022/10/23 05:20:48;;;;;;;46.25;18.15;;;6.10;99.90;;;6.56;100.00;98818.34;5024224;28;116165;-77
2022/10/23 05:23:21;;;;;;;45.05;18.52;;;6.20;99.90;;;6.53;100.00;98816.25;5027481;28;129667;-75
2022/10/23 05:25:56;;;;;;;43.33;17.85;;;6.10;99.90;;;6.54;100.00;98820.56;5018221;28;129169;-76
2022/10/23 05:28:25;;;;;;;44.08;17.95;;;6.20;99.90;;;6.61;100.00;98820.97;5008446;28;118211;-76
2022/10/23 05:30:53;;;;;;;45.17;17.98;;;6.20;99.90;;;6.62;100.00;98817.16;5016311;28;116214;-76
2022/10/23 05:33:27;;;;;;;42.55;16.63;;;6.20;99.90;;;6.72;100.00;98821.56;5019112;28;130335;-76
2022/10/23 05:35:56;;;;;;;43.00;16.73;;;6.30;99.90;;;6.77;100.00;98819.53;5019288;27;129162;-75
2022/10/23 05:38:27;;;;;;;40.13;18.67;;;6.30;99.90;;;6.84;100.00;98825.31;5031148;27;119242;-77
2022/10/23 05:40:56;;;;;;;46.58;20.98;;;6.40;99.90;;;6.94;100.00;98820.81;5024194;27;116439;-78
2022/10/23 05:43:26;;;;;;;47.05;20.50;;;6.40;99.90;;;6.93;100.00;98827.28;5027214;27;130230;-77
2022/10/23 05:46:05;;;;;;;38.33;17.23;;;6.40;99.90;;;6.94;100.00;98824.28;5007605;28;128984;-77
2022/10/23 05:48:35;;;;;;;39.90;16.88;;;6.40;99.90;;;7.01;100.00;98823.88;5032550;27;118474;-79
2022/10/23 05:51:19;;;;;;;35.05;15.98;;;6.50;99.90;;;6.96;100.00;98827.47;5025594;27;116043;-81
2022/10/23 05:53:56;;;;;;;39.05;16.20;;;6.50;99.90;;;7.01;100.00;98823.88;5007354;27;130642;-79
2022/10/23 05:56:55;;;;;;;33.28;15.32;;;6.50;99.90;;;7.04;100.00;98833.25;5010642;27;129864;-79
2022/10/23 05:59:32;;;;;;;35.42;14.80;;;6.50;99.90;;;7.04;100.00;98828.66;5008529;27;119117;-79
2022/10/23 06:02:12;;;;;;;30.00;14.55;;;6.50;99.90;;;6.98;100.00;98841.47;5010573;27;119144;-81
2022/10/23 06:04:51;;;;;;;35.90;15.20;;;6.50;99.90;;;7.00;100.00;98830.38;5006807;27;130314;-75
2022/10/23 06:07:49;;;;;;;37.42;17.67;;;6.50;99.90;;;7.05;100.00;98835.66;5020165;27;129649;-76
2022/10/23 06:10:20;;;;;;;33.50;15.35;;;6.60;99.90;;;7.10;100.00;98834.75;5003565;28;121767;-77
2022/10/23 06:12:52;;;;;;;35.72;16.52;;;6.50;99.90;;;7.08;100.00;98835.03;4989656;28;121694;-77
2022/10/23 06:15:21;;;;;;;33.13;15.52;;;6.60;99.90;;;7.17;100.00;98835.91;4971487;28;130924;-83
2022/10/23 06:18:04;;;;;;;31.00;13.93;;;6.70;99.90;;;7.22;100.00;98842.31;4991111;28;129368;-77
2022/10/23 06:20:38;;;;;;;28.33;13.27;;;6.70;99.90;;;7.27;100.00;98842.19;5005512;28;119798;-76
2022/10/23 06:23:21;;;;;;;32.53;13.93;;;6.70;99.90;;;7.33;100.00;98835.56;5007489;28;119214;-80
2022/10/23 06:26:17;;;;;;;27.25;13.48;;;6.70;99.90;;;7.41;100.00;98842.94;5005465;28;129074;-82
2022/10/23 06:29:05;;;;;;;28.10;13.63;;;6.80;99.90;;;7.45;100.00;98838.53;5025051;28;131249;-75
2022/10/23 06:31:35;;;;;;;25.92;13.38;;;6.80;99.90;;;7.52;100.00;98838.88;5005887;28;120382;-77
2022/10/23 06:34:04;;;;;;;28.35;13.95;;;6.80;99.90;;;7.51;100.00;98842.69;5004019;28;120022;-75
2022/10/23 06:36:34;;;;;;;25.05;12.43;;;6.80;99.90;;;7.50;100.00;98849.19;5023692;28;129515;-80
2022/10/23 06:39:23;;;;;;;27.65;12.73;;;6.80;99.90;;;7.38;100.00;98848.94;4978518;28;129414;-78
2022/10/23 06:42:16;;;;;;;31.52;13.32;;;6.70;99.90;;;7.28;100.00;98849.97;5021287;28;120152;-77
2022/10/23 06:44:57;;;;;;;35.35;15.45;;;6.70;99.90;;;7.29;100.00;98850.78;5021414;28;119597;-77
2022/10/23 06:47:55;;;;;;;35.80;14.95;;;6.70;99.90;;;7.35;100.00;98854.94;4935195;28;129349;-76
2022/10/23 06:50:50;;;;;;;30.10;14.10;;;6.80;99.90;;;7.30;100.00;98849.69;4989535;28;128788;-76
2022/10/23 06:53:24;;;;;;;32.63;13.88;;;6.80;99.90;;;7.36;100.00;98857.34;4991215;28;118861;-78
2022/10/23 06:56:01;;;;;;;34.42;14.75;;;6.80;99.90;;;7.46;100.00;98845.50;5004310;28;119695;-78
2022/10/23 06:58:32;;;;;;;38.83;17.25;;;6.90;99.90;;;7.51;100.00;98848.09;5020253;28;130285;-76
2022/10/23 07:01:08;;;;;;;33.20;17.48;;;6.90;99.90;;;7.61;100.00;98843.56;5002901;28;129014;-77
2022/10/23 07:03:37;;;;;;;35.88;15.20;;;7.00;99.90;;;7.65;100.00;98848.03;5022033;28;121774;-75
2022/10/23 07:06:10;;;;;;;28.80;14.07;;;7.00;99.90;;;7.67;100.00;98845.81;4989571;28;121849;-75
2022/10/23 07:08:39;;;;;;;39.47;18.00;;;6.90;99.90;;;7.73;100.00;98844.59;4988731;28;129188;-75
2022/10/23 07:11:27;;;;;;;32.95;14.85;;;7.10;99.90;;;7.82;100.00;98844.66;4988669;28;128296;-77
2022/10/23 07:13:59;;;;;;;29.90;13.85;;;7.10;99.90;;;7.87;100.00;98849.91;5006173;28;118978;-76
2022/10/23 07:16:28;;;;;;;28.55;13.35;;;7.20;99.90;;;7.87;100.00;98849.91;5004702;28;119167;-76
2022/10/23 07:19:00;;;;;;;30.05;13.48;;;7.10;99.90;;;7.82;100.00;98852.75;5004891;28;129783;-83
2022/10/23 07:21:30;;;;;;;28.95;14.25;;;7.00;99.90;;;7.85;100.00;98846.72;5021386;28;131107;-75
2022/10/23 07:24:14;;;;;;;28.35;15.20;;;7.10;99.90;;;7.89;100.00;98853.09;5022261;28;119456;-77
2022/10/23 07:26:43;;;;;;;27.35;14.02;;;7.20;99.90;;;8.11;100.00;98854.16;5020738;28;119488;-83
2022/10/23 07:29:18;;;;;;;29.55;13.98;;;7.30;99.90;;;8.30;100.00;98850.44;5020819;27;129381;-80
2022/10/23 07:31:56;;;;;;;37.08;20.40;;;7.60;99.90;;;8.27;100.00;98852.66;5016077;27;130057;-81
2022/10/23 07:34:45;;;;;;;29.35;14.68;;;7.50;99.90;;;8.33;100.00;98849.81;5038047;27;119428;-75
2022/10/23 07:37:24;;;;;;;26.70;13.45;;;7.50;99.90;;;8.28;100.00;98848.84;5008299;27;119367;-78
2022/10/23 07:39:54;;;;;;;26.85;14.23;;;7.50;99.90;;;8.39;100.00;98848.56;5004992;27;130620;-75
2022/10/23 07:42:23;;;;;;;28.83;14.77;;;7.60;99.90;;;8.48;100.00;98856.72;4988583;27;128744;-77
2022/10/23 07:44:54;;;;;;;27.17;13.90;;;7.70;99.90;;;8.66;100.00;98860.28;5035324;27;120112;-75
2022/10/23 07:47:24;;;;;;;29.92;15.70;;;7.70;99.90;;;8.73;100.00;98855.22;5020294;27;119504;-76
2022/10/23 07:49:56;;;;;;;25.92;13.00;;;7.80;99.90;;;8.71;100.00;98866.38;5006682;27;130805;-78
2022/10/23 07:52:27;;;;;;;22.65;12.35;;;7.80;99.90;;;8.46;100.00;98865.16;5008902;27;129085;-76
2022/10/23 07:55:22;;;;;;;37.28;18.05;;;7.70;99.90;;;8.43;100.00;98865.75;4980366;27;121418;-76
2022/10/23 07:58:05;;;;;;;31.13;16.88;;;7.70;99.90;;;8.59;100.00;98869.66;5042796;27;121752;-75
2022/10/23 08:00:52;;;;;;;31.80;15.82;;;7.70;99.90;;;8.75;100.00;98869.22;5005894;27;130100;-75
2022/10/23 08:03:33;;;;;;;21.05;12.05;;;8.00;99.90;;;8.81;100.00;98860.63;4992344;27;128871;-75
2022/10/23 08:06:06;;;;;;;22.50;11.88;;;7.90;99.90;;;8.84;100.00;98871.97;5024200;27;119072;-77
2022/10/23 08:08:36;;;;;;;22.80;11.85;;;7.90;99.90;;;8.87;100.00;98869.41;5021763;27;119212;-76
2022/10/23 08:11:07;;;;;;;22.25;11.52;;;7.90;99.90;;;8.92;100.00;98882.78;5024278;27;129930;-77
2022/10/23 08:13:46;;;;;;;27.65;11.32;;;7.90;99.90;;;9.08;100.00;98882.34;5038382;27;130052;-77
2022/10/23 08:16:17;;;;;;;18.05;9.95;;;8.20;99.90;;;9.11;100.00;98881.72;4974497;27;118686;-76
2022/10/23 08:19:08;;;;;;;18.30;10.23;;;8.20;99.90;;;9.23;100.00;98876.47;5024079;27;119994;-76
2022/10/23 08:21:40;;;;;;;15.90;10.48;;;8.30;99.90;;;9.23;100.00;98876.47;5019932;27;129897;-75
2022/10/23 08:24:12;;;;;;;18.02;10.80;;;8.30;99.90;;;9.18;100.00;98879.34;5021619;27;129579;-79
2022/10/23 08:26:42;;;;;;;18.75;11.10;;;8.20;99.90;;;9.21;100.00;98884.13;5025040;27;120244;-76
2022/10/23 08:29:12;;;;;;;17.88;10.18;;;8.30;99.90;;;9.06;100.00;98876.47;5021541;27;119396;-78
2022/10/23 08:31:42;;;;;;;15.40;10.43;;;8.30;99.90;;;9.14;100.00;98872.97;5021416;27;129444;-79
2022/10/23 08:34:27;;;;;;;17.83;10.10;;;8.40;99.90;;;9.31;100.00;98877.59;5042403;27;130543;-77
2022/10/23 08:36:56;;;;;;;16.52;10.80;;;8.50;99.90;;;9.39;100.00;98878.72;5011020;27;119546;-78
2022/10/23 08:39:25;;;;;;;16.55;10.15;;;8.50;99.90;;;9.64;100.00;98880.59;5011279;27;118564;-76
2022/10/23 08:42:21;;;;;;;20.85;10.07;;;8.70;99.90;;;9.89;100.00;98878.19;5023903;27;131032;-77
2022/10/23 08:45:01;;;;;;;17.67;10.80;;;8.70;99.90;;;9.79;100.00;98879.31;5027361;27;129609;-76
2022/10/23 08:47:39;;;;;;;16.27;10.30;;;8.70;99.90;;;9.70;100.00;98879.31;5024214;27;122198;-76
2022/10/23 08:50:32;;;;;;;15.43;10.25;;;8.70;99.90;;;9.54;100.00;98886.34;5042846;27;122910;-76
2022/10/23 08:53:09;;;;;;;15.50;10.15;;;8.60;99.90;;;9.48;100.00;98884.94;5024020;27;131030;-73
2022/10/23 08:55:43;;;;;;;17.42;10.48;;;8.60;99.90;;;9.43;100.00;98890.50;5042012;27;130174;-76
2022/10/23 08:58:17;;;;;;;16.20;10.60;;;8.60;99.90;;;9.54;100.00;98886.34;5024344;27;119627;-79
2022/10/23 09:00:49;;;;;;;16.48;10.98;;;8.70;99.90;;;9.67;100.00;98890.78;5027131;27;119000;-75
2022/10/23 09:03:20;;;;;;;16.10;10.32;;;8.70;99.90;;;9.60;100.00;98889.69;5010081;27;129546;-80
2022/10/23 09:06:07;;;;;;;16.90;11.00;;;8.70;99.90;;;9.61;100.00;98892.06;5027400;27;128963;-76
2022/10/23 09:08:50;;;;;;;15.98;10.50;;;8.70;99.90;;;9.69;100.00;98902.13;5010763;27;118667;-77
2022/10/23 09:11:25;;;;;;;15.75;10.73;;;8.80;99.90;;;9.83;100.00;98893.00;5027126;27;119073;-75
2022/10/23 09:15:12;;;;;;;13.70;10.27;;;8.80;99.90;;;9.75;100.00;98891.91;5009175;27;129343;-74
2022/10/23 09:17:43;;;;;;;17.05;10.60;;;8.90;99.90;;;9.98;100.00;98889.00;4944766;28;128474;-75
2022/10/23 09:20:21;;;;;;;14.90;9.95;;;8.90;99.90;;;9.89;100.00;98895.25;4979543;28;119533;-78
2022/10/23 09:22:54;;;;;;;13.93;10.45;;;8.90;99.90;;;9.87;100.00;98899.41;5006962;27;118931;-78
2022/10/23 09:25:26;;;;;;;14.77;9.23;;;8.90;99.90;;;9.72;100.00;98887.13;5026524;27;129294;-76
2022/10/23 09:27:57;;;;;;;16.55;9.30;;;8.90;99.90;;;9.68;100.00;98891.63;5026866;27;128397;-77
2022/10/23 09:30:29;;;;;;;12.55;9.13;;;8.90;99.90;;;9.70;100.00;98884.75;5042072;27;120404;-77
2022/10/23 09:32:57;;;;;;;13.90;9.40;;;8.90;99.90;;;9.81;100.00;98897.97;5042121;27;119862;-75
2022/10/23 09:35:30;;;;;;;13.57;9.43;;;8.90;99.90;;;9.65;100.00;98882.19;5041513;27;130424;-75
2022/10/23 09:37:58;;;;;;;13.90;8.82;;;8.90;99.90;;;9.79;100.00;98895.56;5041402;27;130182;-74
2022/10/23 09:40:35;;;;;;;13.23;8.55;;;9.00;99.90;;;9.82;100.00;98883.31;5040388;27;121882;-78
2022/10/23 09:43:15;;;;;;;13.60;8.93;;;9.00;99.90;;;9.87;100.00;98883.13;5060256;27;121090;-78
2022/10/23 09:45:43;;;;;;;14.15;9.07;;;9.10;99.90;;;9.89;100.00;98886.31;5023398;27;129918;-77
2022/10/23 09:48:19;;;;;;;15.10;8.77;;;9.10;99.90;;;9.89;100.00;98889.84;5008809;27;129050;-76
2022/10/23 09:50:53;;;;;;;12.07;8.07;;;9.20;99.90;;;10.02;100.00;98888.03;5026514;27;118827;-74
2022/10/23 09:53:34;;;;;;;14.10;8.82;;;9.20;99.90;;;10.20;100.00;98891.50;5060347;27;119254;-74
2022/10/23 09:56:10;;;;;;;13.82;8.93;;;9.30;99.90;;;10.27;100.00;98888.31;5026105;27;129673;-77
2022/10/23 09:58:52;;;;;;;12.48;8.63;;;9.30;99.90;;;10.26;100.00;98889.41;5026443;27;128522;-76
2022/10/23 10:01:27;;;;;;;11.88;7.57;;;9.50;99.90;;;10.11;100.00;98892.66;5009996;27;118757;-76
2022/10/23 10:04:02;;;;;;;12.05;8.15;;;9.40;99.90;;;9.97;100.00;98893.66;5009705;27;118592;-74
2022/10/23 10:06:33;;;;;;;16.45;8.07;;;9.30;99.90;;;9.90;100.00;98899.53;5025066;27;129568;-78
2022/10/23 10:09:08;;;;;;;12.48;8.20;;;9.30;99.90;;;9.90;100.00;98887.91;5022817;27;130363;-75
2022/10/23 10:11:43;;;;;;;14.48;8.20;;;9.30;99.90;;;9.80;100.00;98901.78;5009586;27;119476;-75
2022/10/23 10:14:40;;;;;;;18.13;9.48;;;9.20;99.90;;;9.66;100.00;98900.06;5026665;27;119816;-76
2022/10/23 10:17:20;;;;;;;19.50;8.67;;;9.20;99.90;;;9.73;100.00;98901.50;5060258;27;129772;-74
2022/10/23 10:20:15;;;;;;;14.50;8.85;;;9.20;99.90;;;9.75;100.00;98901.97;5040812;27;129818;-73
2022/10/23 10:22:53;;;;;;;14.32;8.93;;;9.20;99.90;;;9.65;100.00;98893.03;5013577;27;119193;-75
2022/10/23 10:25:33;;;;;;;15.18;8.27;;;9.20;99.90;;;9.66;100.00;98894.63;5021205;28;119502;-76
2022/10/23 10:28:28;;;;;;;13.50;8.60;;;9.20;99.90;;;9.70;100.00;98898.28;5019071;28;130914;-75
2022/10/23 10:31:13;;;;;;;14.90;8.98;;;9.20;99.90;;;9.62;100.00;98898.31;5009926;27;129945;-75
2022/10/23 10:33:53;;;;;;;15.20;9.30;;;9.20;99.90;;;9.51;100.00;98893.19;5039890;27;121950;-77
2022/10/23 10:36:41;;;;;;;17.85;9.90;;;9.20;99.90;;;9.38;100.00;98888.75;5040878;27;122172;-75
2022/10/23 10:39:43;;;;;;;17.60;9.27;;;9.20;99.90;;;9.49;100.00;98898.16;5041091;27;129831;-74
2022/10/23 10:42:41;;;;;;;20.02;9.80;;;9.30;99.90;;;9.70;100.00;98895.56;5021827;27;129667;-74
2022/10/23 10:45:25;;;;;;;;;;;9.30;99.90;;;9.78;100.00;98893.19;5057091;27;119948;-76